Terminal Aerodrome Forecast
Issued by NWS Grand Rapids, MI

Home | Current Version | Previous Version | Text Only | Print | Product List | Glossary On
Versions: 1 2 3 4 5 6 7 8 9 10 11 12 13 14 15 16 17 18 19 20 21 22 23 24 25 26
000
FTUS43 KGRR 230100 AAB
TAFGRR
TAF AMD
KGRR 230123Z 2301/2324 09005KT P6SM FEW035 SCT250
     FM230500 10004KT 4SM BR FEW250
     FM230800 09004KT 2SM BR BKN050
     FM231000 09004KT 1/4SM FG OVC001
     FM231500 09006KT 4SM HZ OVC015
     FM231700 09005KT P6SM BKN025
     FM231900 10006KT P6SM BKN050=

USA.gov is the U.S. government's official web portal to all federal, state and local government web resources and services.